Time;durP1;ratioP1;P1;durP2;ratioP2;P2;SDS_P1;SDS_P2;PMS_P1;PMS_P2;Temp;Humidity;BMP_temperature;BMP_pressure;BME280_temperature;BME280_humidity;BME280_pressure;Samples;Min_cycle;Max_cycle;Signal;HPM_P1;HPM_P2
2023/10/09 00:01:51;;;;;;;9.80;6.65;;;16.10;99.90;;;;;;5092529;28;20076;-68
2023/10/09 00:04:17;;;;;;;9.93;6.50;;;15.90;99.90;;;;;;5092447;28;20189;-68
2023/10/09 00:06:43;;;;;;;9.90;6.88;;;15.80;99.90;;;;;;5092392;28;20614;-68
2023/10/09 00:11:58;;;;;;;10.38;6.80;;;15.50;99.90;;;;;;5092036;28;20051;-69
2023/10/09 00:14:30;;;;;;;9.55;7.32;;;15.50;99.90;;;;;;5091875;28;20039;-68
2023/10/09 00:17:17;;;;;;;9.73;7.00;;;15.40;99.90;;;;;;5092595;28;20066;-68
2023/10/09 00:19:49;;;;;;;13.93;7.05;;;15.40;99.90;;;;;;5092141;28;20530;-68
2023/10/09 00:24:50;;;;;;;11.00;6.82;;;15.30;99.90;;;;;;5092070;28;20557;-68
2023/10/09 00:27:19;;;;;;;9.52;6.95;;;15.30;99.90;;;;;;5091970;28;20024;-68
2023/10/09 00:29:45;;;;;;;14.00;6.75;;;15.20;99.90;;;;;;5092300;28;20127;-69
2023/10/09 00:32:27;;;;;;;9.90;7.00;;;15.20;99.90;;;;;;5091612;28;20051;-68
2023/10/09 00:34:59;;;;;;;8.35;6.80;;;15.20;99.90;;;;;;5091006;28;20077;-69
2023/10/09 00:37:26;;;;;;;9.95;6.80;;;15.20;99.90;;;;;;5091897;28;20028;-68
2023/10/09 00:39:58;;;;;;;10.65;7.35;;;15.10;99.90;;;;;;5091745;28;20032;-68
2023/10/09 00:42:29;;;;;;;9.25;6.57;;;15.10;99.90;;;;;;5091505;28;20039;-68
2023/10/09 00:45:04;;;;;;;10.02;7.15;;;15.00;99.90;;;;;;5091797;28;20032;-68
2023/10/09 00:47:34;;;;;;;9.07;6.93;;;15.00;99.90;;;;;;5091970;28;20028;-68
2023/10/09 00:53:18;;;;;;;11.57;7.55;;;14.90;99.90;;;;;;5091501;28;20047;-70
2023/10/09 00:55:45;;;;;;;10.05;7.15;;;14.90;99.90;;;;;;5089652;28;20040;-67
2023/10/09 00:58:21;;;;;;;8.80;6.60;;;15.00;99.90;;;;;;5089727;28;20413;-69
2023/10/09 01:00:47;;;;;;;14.27;7.30;;;15.20;99.90;;;;;;5091698;28;20077;-67
2023/10/09 01:09:28;;;;;;;9.35;6.90;;;15.50;99.90;;;;;;5091852;28;20036;-68
2023/10/09 01:11:23;;;;;;;8.93;6.68;;;15.60;99.90;;;;;;5086722;28;20387;-68
2023/10/09 01:13:52;;;;;;;8.40;6.63;;;15.60;99.90;;;;;;5091376;28;20090;-68
2023/10/09 01:16:23;;;;;;;8.63;6.70;;;15.70;99.90;;;;;;5091478;28;20035;-69
2023/10/09 01:18:51;;;;;;;8.50;7.13;;;15.60;99.90;;;;;;5091319;28;20037;-68
2023/10/09 01:21:26;;;;;;;9.20;7.50;;;15.60;99.90;;;;;;5091499;28;20024;-68
2023/10/09 01:24:08;;;;;;;12.07;7.68;;;15.60;99.90;;;;;;5091339;28;20051;-69
2023/10/09 01:26:44;;;;;;;11.48;8.25;;;15.60;99.90;;;;;;5091123;28;20103;-68
2023/10/09 01:29:21;;;;;;;11.43;7.80;;;15.60;99.90;;;;;;5091507;28;20204;-68
2023/10/09 01:31:55;;;;;;;9.52;7.40;;;15.50;99.90;;;;;;5091379;28;20475;-68
2023/10/09 01:34:25;;;;;;;11.20;7.25;;;15.30;99.90;;;;;;5091317;28;20088;-68
2023/10/09 01:36:55;;;;;;;10.98;7.40;;;15.10;99.90;;;;;;5091186;28;20056;-68
2023/10/09 01:39:25;;;;;;;9.48;7.45;;;15.00;99.90;;;;;;5091272;28;20020;-68
2023/10/09 01:41:58;;;;;;;10.90;8.05;;;14.80;99.90;;;;;;5091251;28;20039;-68
2023/10/09 01:44:34;;;;;;;8.67;7.43;;;14.80;99.90;;;;;;5091194;28;20138;-68
2023/10/09 01:47:13;;;;;;;11.23;8.07;;;14.70;99.90;;;;;;5090211;28;20073;-67
2023/10/09 01:49:43;;;;;;;9.30;7.70;;;14.50;99.90;;;;;;5089945;28;20059;-68
2023/10/09 01:52:16;;;;;;;10.93;7.82;;;14.50;99.90;;;;;;5090999;28;20498;-67
2023/10/09 01:54:47;;;;;;;11.43;8.23;;;14.50;99.90;;;;;;5090846;28;20081;-68
2023/10/09 01:57:13;;;;;;;10.70;7.05;;;14.50;99.90;;;;;;5091051;28;20036;-68
2023/10/09 01:59:49;;;;;;;11.15;7.47;;;14.30;99.90;;;;;;5091064;28;20026;-67
2023/10/09 02:02:33;;;;;;;11.02;7.82;;;14.30;99.90;;;;;;5091033;28;20040;-68
2023/10/09 02:05:26;;;;;;;10.88;8.15;;;14.30;99.90;;;;;;5091031;28;20036;-68
2023/10/09 02:07:51;;;;;;;8.95;7.65;;;14.20;99.90;;;;;;5090804;28;20036;-68
2023/10/09 02:10:47;;;;;;;10.15;8.07;;;14.10;99.90;;;;;;5090583;28;20080;-67
2023/10/09 02:13:09;;;;;;;10.30;8.38;;;14.10;99.90;;;;;;5090534;28;20396;-68
2023/10/09 02:18:17;;;;;;;;;;;14.20;99.90;;;;;;5091181;28;20482;-67
2023/10/09 02:21:00;;;;;;;13.13;10.18;;;14.10;99.90;;;;;;5092505;28;19926;-68
2023/10/09 02:23:49;;;;;;;10.23;9.15;;;14.10;99.90;;;;;;5094253;28;20040;-68
2023/10/09 02:26:26;;;;;;;10.73;9.30;;;14.10;99.90;;;;;;5094825;28;20051;-68
2023/10/09 02:31:43;;;;;;;11.95;9.80;;;14.10;99.90;;;;;;5094464;28;20499;-68
2023/10/09 02:34:10;;;;;;;11.45;9.82;;;14.20;99.90;;;;;;5094524;28;20126;-69
2023/10/09 02:36:43;;;;;;;13.90;10.55;;;14.30;99.90;;;;;;5094131;28;20064;-68
2023/10/09 02:39:28;;;;;;;11.40;9.98;;;14.40;99.90;;;;;;5094241;28;20032;-68
2023/10/09 02:42:19;;;;;;;11.63;9.55;;;14.60;99.90;;;;;;5094311;28;20079;-68
2023/10/09 02:44:49;;;;;;;12.07;9.23;;;14.60;99.90;;;;;;5094001;28;20036;-68
2023/10/09 02:47:31;;;;;;;12.05;9.45;;;14.60;99.90;;;;;;5094310;28;20028;-67
2023/10/09 02:50:06;;;;;;;13.35;9.98;;;14.70;99.90;;;;;;5092704;28;20073;-67
2023/10/09 02:52:40;;;;;;;12.98;10.05;;;14.70;99.90;;;;;;5093979;28;20028;-67
2023/10/09 02:55:12;;;;;;;11.48;9.32;;;14.70;99.90;;;;;;5092598;28;20497;-68
2023/10/09 02:57:37;;;;;;;11.70;10.23;;;14.70;99.90;;;;;;5094157;28;20028;-67
2023/10/09 03:00:18;;;;;;;10.95;9.82;;;14.60;99.90;;;;;;5093957;28;20081;-67
2023/10/09 03:02:49;;;;;;;10.52;9.43;;;14.70;99.90;;;;;;5093657;28;20040;-68
2023/10/09 03:05:15;;;;;;;12.32;9.80;;;14.70;99.90;;;;;;5093677;28;20020;-68
2023/10/09 03:07:42;;;;;;;11.68;10.35;;;14.70;99.90;;;;;;5093197;28;20032;-68
2023/10/09 03:10:09;;;;;;;11.73;10.52;;;14.50;99.90;;;;;;5093560;28;20038;-67
2023/10/09 03:12:36;;;;;;;11.73;10.45;;;14.40;99.90;;;;;;5093703;28;20103;-67
2023/10/09 03:15:05;;;;;;;14.43;11.00;;;14.20;99.90;;;;;;5093916;28;20390;-67
2023/10/09 03:17:34;;;;;;;15.27;10.90;;;14.00;99.90;;;;;;5093656;28;20081;-68
2023/10/09 03:20:08;;;;;;;12.70;10.60;;;13.90;99.90;;;;;;5093318;28;20024;-67
2023/10/09 03:22:35;;;;;;;11.82;10.63;;;13.90;99.90;;;;;;5093002;28;20036;-67
2023/10/09 03:25:01;;;;;;;12.80;10.65;;;13.80;99.90;;;;;;5093140;28;20020;-67
2023/10/09 03:27:26;;;;;;;11.88;10.63;;;13.80;99.90;;;;;;5092968;28;20035;-68
2023/10/09 03:29:53;;;;;;;11.40;10.27;;;13.70;99.90;;;;;;5093587;28;20478;-68
2023/10/09 03:32:19;;;;;;;14.55;11.23;;;13.60;99.90;;;;;;5092029;28;20081;-67
2023/10/09 03:34:45;;;;;;;12.23;11.00;;;13.60;99.90;;;;;;5093240;28;20448;-68
2023/10/09 03:37:22;;;;;;;12.40;10.60;;;13.50;99.90;;;;;;5092768;28;20505;-67
2023/10/09 03:39:48;;;;;;;12.13;10.55;;;13.50;99.90;;;;;;5092898;28;20024;-68
2023/10/09 03:42:20;;;;;;;11.88;10.60;;;13.50;99.90;;;;;;5092869;28;20039;-68
2023/10/09 03:44:53;;;;;;;13.20;10.20;;;13.40;99.90;;;;;;5093088;28;20036;-67
2023/10/09 03:47:22;;;;;;;10.67;9.57;;;13.30;99.90;;;;;;5092731;28;20024;-67
2023/10/09 03:49:51;;;;;;;11.07;9.95;;;13.30;99.90;;;;;;5092806;28;20266;-67
2023/10/09 03:52:18;;;;;;;12.20;9.93;;;13.30;99.90;;;;;;5092820;28;20504;-69
2023/10/09 03:54:46;;;;;;;11.55;10.45;;;13.30;99.90;;;;;;5092875;28;20135;-67
2023/10/09 03:57:18;;;;;;;11.45;10.25;;;13.30;99.90;;;;;;5092600;28;20119;-67
2023/10/09 03:59:46;;;;;;;10.85;9.38;;;13.30;99.90;;;;;;5093072;28;20028;-67
2023/10/09 04:02:16;;;;;;;10.43;9.43;;;13.30;99.90;;;;;;5092341;28;20406;-68
2023/10/09 04:04:47;;;;;;;11.57;10.02;;;13.30;99.90;;;;;;5092149;28;20063;-67
2023/10/09 04:07:16;;;;;;;11.00;9.57;;;13.30;99.90;;;;;;5092798;28;20475;-68
2023/10/09 04:09:44;;;;;;;11.75;9.65;;;13.30;99.90;;;;;;5092449;28;20064;-67
2023/10/09 04:14:44;;;;;;;10.52;9.52;;;13.50;99.90;;;;;;5092666;28;20028;-67
2023/10/09 04:17:56;;;;;;;10.32;9.32;;;13.70;99.90;;;;;;5092240;28;20031;-68
2023/10/09 04:22:50;;;;;;;10.82;9.70;;;14.00;99.90;;;;;;5092743;28;20032;-68
2023/10/09 04:25:25;;;;;;;11.57;10.48;;;14.20;99.90;;;;;;5092513;28;20027;-68
2023/10/09 04:30:42;;;;;;;12.85;11.48;;;14.40;99.90;;;;;;5092302;28;20036;-69
2023/10/09 04:36:16;;;;;;;15.13;11.48;;;14.30;99.90;;;;;;5092107;28;20521;-68
2023/10/09 04:41:28;;;;;;;17.40;12.90;;;14.30;99.90;;;;;;5049562;28;20068;-68
2023/10/09 04:44:18;;;;;;;16.08;12.30;;;14.30;99.90;;;;;;5048593;28;20073;-68
2023/10/09 04:47:18;;;;;;;14.95;12.10;;;14.20;99.90;;;;;;5048964;28;20407;-67
2023/10/09 04:49:49;;;;;;;15.25;11.50;;;14.00;99.90;;;;;;5048756;28;20071;-68
2023/10/09 04:52:51;;;;;;;15.38;12.02;;;13.90;99.90;;;;;;5049086;28;20447;-67
2023/10/09 04:58:00;;;;;;;14.57;11.85;;;13.80;99.90;;;;;;5048744;28;20033;-66
2023/10/09 05:02:56;;;;;;;14.20;11.75;;;13.70;99.90;;;;;;5048249;28;20043;-68
2023/10/09 05:08:29;;;;;;;11.60;10.40;;;13.60;99.90;;;;;;5049192;28;20037;-67
2023/10/09 05:16:18;;;;;;;12.38;10.85;;;13.50;99.90;;;;;;5048605;28;20025;-68
2023/10/09 05:19:05;;;;;;;12.48;11.15;;;13.50;99.90;;;;;;5072226;28;20438;-67
2023/10/09 05:34:34;;;;;;;11.30;10.27;;;13.40;99.90;;;;;;5091061;28;20024;-67
2023/10/09 05:37:24;;;;;;;11.45;10.35;;;13.40;99.90;;;;;;5091068;28;20030;-67
2023/10/09 05:40:22;;;;;;;12.02;10.60;;;13.40;99.90;;;;;;5090958;28;20024;-67
2023/10/09 05:42:45;;;;;;;11.20;10.10;;;13.30;99.90;;;;;;5090820;28;20130;-67
2023/10/09 05:47:57;;;;;;;10.25;9.35;;;13.30;99.90;;;;;;5090568;28;20074;-67
2023/10/09 06:06:02;;;;;;;11.30;10.10;;;14.20;99.90;;;;;;5094670;28;20027;-67
2023/10/09 06:11:38;;;;;;;11.32;9.90;;;14.20;99.90;;;;;;5094391;28;20068;-67
2023/10/09 06:14:04;;;;;;;10.48;9.57;;;14.30;99.90;;;;;;5094360;28;20383;-67
2023/10/09 06:19:11;;;;;;;10.60;9.45;;;14.30;99.90;;;;;;5094243;28;20508;-67
2023/10/09 06:24:23;;;;;;;10.70;9.38;;;14.30;99.90;;;;;;5094411;28;20134;-68
2023/10/09 06:29:35;;;;;;;10.75;9.85;;;14.10;99.90;;;;;;5094487;28;20055;-68
2023/10/09 06:34:53;;;;;;;10.65;9.50;;;14.00;99.90;;;;;;5094219;28;20099;-66
2023/10/09 06:42:30;;;;;;;9.77;8.87;;;13.80;99.90;;;;;;5093774;28;20032;-67
2023/10/09 06:45:07;;;;;;;10.55;9.50;;;13.80;99.90;;;;;;5093579;28;20030;-68
2023/10/09 06:47:42;;;;;;;10.73;9.63;;;13.80;99.90;;;;;;5094228;28;20024;-67
2023/10/09 06:56:05;;;;;;;9.80;8.90;;;13.80;99.90;;;;;;5051107;28;20036;-67
2023/10/09 06:58:41;;;;;;;9.73;8.82;;;13.80;99.90;;;;;;5050762;28;20052;-68
2023/10/09 07:04:18;;;;;;;9.90;9.00;;;13.90;99.90;;;;;;5011242;28;20053;-68
2023/10/09 07:17:15;;;;;;;9.82;8.93;;;14.10;99.90;;;;;;5011010;28;20037;-68
2023/10/09 07:24:57;;;;;;;9.30;8.40;;;14.20;99.90;;;;;;5011100;28;20041;-69
2023/10/09 07:27:51;;;;;;;9.63;8.73;;;14.30;99.90;;;;;;5010868;28;20121;-67
2023/10/09 07:38:20;;;;;;;8.90;8.10;;;14.90;99.90;;;;;;5030443;28;20411;-69
2023/10/09 07:43:39;;;;;;;8.57;7.78;;;15.30;99.90;;;;;;5072061;28;20413;-68
2023/10/09 07:48:52;;;;;;;8.52;7.80;;;15.70;99.90;;;;;;5072383;28;20036;-69
2023/10/09 07:51:25;;;;;;;8.35;7.63;;;15.80;99.90;;;;;;5072672;28;20514;-68
2023/10/09 07:54:14;;;;;;;8.52;7.75;;;15.90;99.90;;;;;;5072176;28;20445;-68
2023/10/09 07:56:41;;;;;;;8.65;7.85;;;16.00;99.90;;;;;;5071718;28;20058;-67
2023/10/09 07:59:11;;;;;;;8.77;7.97;;;16.20;99.90;;;;;;5072031;28;20396;-67
2023/10/09 08:01:54;;;;;;;7.78;7.07;;;16.30;99.90;;;;;;5072541;28;20024;-69
2023/10/09 08:04:39;;;;;;;7.50;6.90;;;16.40;99.90;;;;;;5071717;28;20099;-68
2023/10/09 08:07:09;;;;;;;7.40;6.80;;;16.40;99.90;;;;;;5071848;28;20237;-68
2023/10/09 08:09:47;;;;;;;8.30;7.47;;;16.40;99.90;;;;;;5072005;28;20106;-68
2023/10/09 08:12:14;;;;;;;7.30;6.70;;;16.30;99.90;;;;;;5071460;28;20095;-67
2023/10/09 08:14:45;;;;;;;7.95;7.15;;;16.30;99.90;;;;;;5071582;28;20025;-68
2023/10/09 08:17:20;;;;;;;8.25;7.45;;;16.30;99.90;;;;;;5071190;28;20498;-68
2023/10/09 08:19:54;;;;;;;7.25;6.65;;;16.30;99.90;;;;;;5071532;28;20024;-68
2023/10/09 08:24:57;;;;;;;7.63;6.93;;;16.40;99.90;;;;;;5084785;28;20043;-68
2023/10/09 08:32:43;;;;;;;7.28;6.65;;;16.50;99.90;;;;;;5091704;28;20059;-68
2023/10/09 08:35:29;;;;;;;7.20;6.57;;;16.60;99.90;;;;;;5091941;28;20028;-67
2023/10/09 08:38:03;;;;;;;7.30;6.50;;;16.70;99.90;;;;;;5091630;28;20030;-67
2023/10/09 08:40:33;;;;;;;;;;;16.80;99.90;;;;;;5091925;28;20027;-68
2023/10/09 08:43:14;;;;;;;8.05;7.25;;;16.90;99.90;;;;;;5091505;28;19994;-68
2023/10/09 08:45:44;;;;;;;7.63;6.93;;;17.00;99.90;;;;;;5092041;28;20099;-68
2023/10/09 08:48:17;;;;;;;10.10;9.00;;;17.00;99.90;;;;;;5091564;28;20020;-67
2023/10/09 08:50:45;;;;;;;8.60;7.78;;;17.20;99.90;;;;;;5091554;28;20028;-67
2023/10/09 08:53:12;;;;;;;9.35;8.35;;;17.30;99.90;;;;;;5091476;28;20043;-69
2023/10/09 08:55:39;;;;;;;10.60;9.07;;;17.30;99.90;;;;;;5091077;28;20020;-69
2023/10/09 08:58:17;;;;;;;10.65;9.00;;;17.40;99.90;;;;;;5091220;28;20059;-69
2023/10/09 09:00:45;;;;;;;12.55;10.27;;;17.40;99.90;;;;;;5091689;28;20482;-69
2023/10/09 09:03:12;;;;;;;13.07;10.75;;;17.60;99.90;;;;;;5091275;28;20040;-69
2023/10/09 09:05:37;;;;;;;12.50;9.85;;;17.70;99.90;;;;;;5091418;28;20012;-69
2023/10/09 09:08:03;;;;;;;14.55;11.45;;;17.70;99.90;;;;;;5091214;28;20456;-69
2023/10/09 09:10:36;;;;;;;18.85;12.95;;;17.80;99.90;;;;;;5091295;28;20643;-69
2023/10/09 09:13:03;;;;;;;17.50;12.55;;;17.90;99.90;;;;;;5091029;28;20115;-69
2023/10/09 09:15:30;;;;;;;22.77;14.52;;;18.00;99.90;;;;;;5091633;28;20574;-69
2023/10/09 09:18:08;;;;;;;20.55;13.70;;;18.20;99.90;;;;;;5091399;28;20027;-69
2023/10/09 09:20:40;;;;;;;16.52;12.02;;;18.50;99.90;;;;;;5091181;28;20020;-69
2023/10/09 09:23:12;;;;;;;19.23;12.90;;;18.70;99.90;;;;;;5091023;28;20225;-68
2023/10/09 09:25:45;;;;;;;16.85;13.27;;;19.00;99.90;;;;;;5090564;28;20056;-69
2023/10/09 09:28:21;;;;;;;15.13;12.98;;;19.20;99.90;;;;;;5091045;28;20044;-69
2023/10/09 09:30:53;;;;;;;17.90;14.27;;;19.50;99.90;;;;;;5093194;28;20036;-69
2023/10/09 09:33:39;;;;;;;17.95;14.40;;;19.60;99.90;;;;;;5095374;28;20034;-69
2023/10/09 09:36:06;;;;;;;14.68;12.43;;;19.80;99.90;;;;;;5094950;28;20032;-70
2023/10/09 09:38:47;;;;;;;13.23;11.55;;;20.00;99.90;;;;;;5095010;28;20035;-70
2023/10/09 09:41:24;;;;;;;13.52;12.13;;;20.00;99.90;;;;;;5094887;28;20506;-70
2023/10/09 09:44:05;;;;;;;13.45;11.07;;;20.10;99.90;;;;;;5095220;28;20036;-70
2023/10/09 09:46:34;;;;;;;12.10;10.90;;;20.30;99.90;;;;;;5095257;28;20055;-69
2023/10/09 09:49:05;;;;;;;11.45;10.35;;;20.40;99.90;;;;;;5094969;28;20048;-69
2023/10/09 09:51:34;;;;;;;12.10;10.80;;;20.50;99.90;;;;;;5094368;28;20502;-70
2023/10/09 09:54:02;;;;;;;10.98;9.88;;;20.60;99.90;;;;;;5094991;28;20574;-70
2023/10/09 09:56:30;;;;;;;10.80;9.75;;;20.60;99.90;;;;;;5094740;28;20058;-69
2023/10/09 09:59:04;;;;;;;14.32;8.80;;;20.50;99.90;;;;;;5094558;28;20414;-68
2023/10/09 10:01:36;;;;;;;11.15;9.68;;;20.50;99.90;;;;;;5095174;28;20052;-68
2023/10/09 10:04:11;;;;;;;12.38;9.40;;;20.60;99.90;;;;;;5094697;28;20089;-68
2023/10/09 10:06:40;;;;;;;11.52;8.88;;;20.80;99.90;;;;;;5094360;28;20016;-68
2023/10/09 10:09:07;;;;;;;12.68;8.95;;;20.90;99.90;;;;;;5094270;28;20032;-69
2023/10/09 10:11:44;;;;;;;13.35;9.07;;;20.90;99.90;;;;;;5094414;28;20043;-68
2023/10/09 10:14:11;;;;;;;10.82;8.55;;;21.10;99.90;;;;;;5094676;28;20506;-67
2023/10/09 10:17:00;;;;;;;13.88;8.75;;;21.20;99.90;;;;;;5094530;28;20024;-68
2023/10/09 10:20:13;;;;;;;13.18;10.02;;;21.20;99.90;;;;;;5094409;28;20467;-67
2023/10/09 10:22:47;;;;;;;16.10;11.63;;;21.20;99.90;;;;;;5094551;28;20527;-68
2023/10/09 10:25:32;;;;;;;;;;;21.10;99.90;;;;;;5094591;28;20048;-68
2023/10/09 10:28:42;;;;;;;13.02;11.65;;;21.00;99.90;;;;;;5094579;28;19915;-67
2023/10/09 10:31:08;;;;;;;15.07;11.55;;;20.90;99.90;;;;;;5051399;28;20546;-67
2023/10/09 10:33:54;;;;;;;27.13;13.15;;;20.90;99.90;;;;;;5051249;28;20519;-67
2023/10/09 10:36:23;;;;;;;135.32;27.00;;;21.00;99.90;;;;;;5051124;28;20029;-67
2023/10/09 10:42:04;;;;;;;39.30;12.32;;;21.00;99.90;;;;;;5050852;28;20418;-68
2023/10/09 10:44:38;;;;;;;30.80;10.55;;;21.10;99.90;;;;;;5051370;28;20045;-68
2023/10/09 10:47:22;;;;;;;;;;;21.20;99.90;;;;;;5051678;28;20108;-67
2023/10/09 10:49:58;;;;;;;17.77;10.65;;;21.30;99.90;;;;;;5051241;28;20290;-67
2023/10/09 10:52:35;;;;;;;11.43;9.15;;;21.30;99.90;;;;;;5050765;28;20040;-67
2023/10/09 10:58:53;;;;;;;9.32;8.38;;;21.60;99.90;;;;;;5050687;28;20029;-67
2023/10/09 11:06:17;;;;;;;9.95;8.02;;;21.90;99.90;;;;;;5065073;28;20085;-68
2023/10/09 11:08:54;;;;;;;10.25;8.43;;;22.20;99.90;;;;;;5092534;28;20338;-67
2023/10/09 11:11:20;;;;;;;9.85;7.75;;;22.20;99.90;;;;;;5092870;28;20020;-68
2023/10/09 11:13:54;;;;;;;8.98;7.60;;;22.30;99.90;;;;;;5093269;28;20043;-67
2023/10/09 11:16:39;;;;;;;7.45;6.75;;;22.50;99.90;;;;;;5093313;28;20436;-68
2023/10/09 11:19:13;;;;;;;9.98;7.35;;;22.60;99.90;;;;;;5092983;28;20071;-69
2023/10/09 11:21:43;;;;;;;9.30;6.85;;;22.70;99.90;;;;;;5092380;28;20048;-68
2023/10/09 11:24:24;;;;;;;7.72;6.93;;;22.70;99.90;;;;;;5092824;28;20043;-69
2023/10/09 11:26:56;;;;;;;9.35;6.82;;;22.70;99.90;;;;;;5092748;28;20444;-68
2023/10/09 11:29:28;;;;;;;7.25;6.50;;;22.70;99.90;;;;;;5092841;28;20127;-68
2023/10/09 11:32:32;;;;;;;8.52;7.32;;;22.90;99.90;;;;;;5093045;28;20074;-69
2023/10/09 11:35:27;;;;;;;9.85;7.90;;;22.90;99.90;;;;;;5092271;28;20064;-69
2023/10/09 11:37:56;;;;;;;8.55;7.70;;;22.90;99.90;;;;;;5093229;28;20112;-69
2023/10/09 11:43:17;;;;;;;10.75;7.85;;;22.60;99.90;;;;;;5092810;28;20406;-68
2023/10/09 11:45:54;;;;;;;8.63;7.72;;;22.50;99.90;;;;;;5092763;28;20027;-69
2023/10/09 11:48:46;;;;;;;10.00;8.02;;;22.50;99.90;;;;;;5092546;28;20050;-69
2023/10/09 11:51:18;;;;;;;10.30;7.85;;;22.60;99.90;;;;;;5092547;28;20108;-69
2023/10/09 11:53:54;;;;;;;8.43;7.00;;;22.60;99.90;;;;;;5090888;28;20028;-68
2023/10/09 11:56:22;;;;;;;9.48;6.72;;;22.60;99.90;;;;;;5092428;28;20498;-68
2023/10/09 11:58:50;;;;;;;8.07;7.28;;;22.60;99.90;;;;;;5091416;28;20154;-68
2023/10/09 12:01:17;;;;;;;10.18;7.43;;;22.50;99.90;;;;;;5092068;28;20035;-69
2023/10/09 12:03:49;;;;;;;9.02;6.97;;;22.60;99.90;;;;;;5091918;28;20040;-68
2023/10/09 12:06:18;;;;;;;8.77;6.60;;;22.60;99.90;;;;;;5092094;28;20024;-69
2023/10/09 12:08:48;;;;;;;8.25;6.40;;;22.60;99.90;;;;;;5092579;28;20032;-69
2023/10/09 12:11:15;;;;;;;7.38;6.03;;;22.70;99.90;;;;;;5092234;28;20026;-69
2023/10/09 12:13:45;;;;;;;10.60;6.47;;;22.80;99.90;;;;;;5092079;28;20109;-68
2023/10/09 12:16:11;;;;;;;6.80;6.10;;;22.80;99.90;;;;;;5092100;28;20031;-69
2023/10/09 12:18:39;;;;;;;7.18;5.75;;;22.80;99.90;;;;;;5091510;28;20024;-68
2023/10/09 12:21:06;;;;;;;7.35;4.68;;;22.90;99.90;;;;;;5092075;28;20032;-68
2023/10/09 12:23:38;;;;;;;6.93;4.03;;;23.00;99.90;;;;;;5091523;28;20028;-69
2023/10/09 12:26:04;;;;;;;9.57;4.15;;;23.00;99.90;;;;;;5091924;28;20027;-69
2023/10/09 12:28:32;;;;;;;5.55;3.85;;;23.10;99.90;;;;;;5091821;28;20040;-68
2023/10/09 12:31:01;;;;;;;6.55;4.03;;;23.30;99.90;;;;;;5091684;28;20024;-70
2023/10/09 12:33:28;;;;;;;7.07;3.72;;;23.40;99.90;;;;;;5091296;28;20028;-69
2023/10/09 12:36:00;;;;;;;8.43;3.80;;;23.60;99.90;;;;;;5091851;28;20028;-69
2023/10/09 12:38:36;;;;;;;7.63;3.90;;;23.80;99.90;;;;;;5092071;28;20449;-69
2023/10/09 12:41:25;;;;;;;7.65;3.85;;;23.90;99.90;;;;;;5091946;28;20031;-68
2023/10/09 12:43:52;;;;;;;6.55;3.80;;;23.90;99.90;;;;;;5091493;28;20043;-68
2023/10/09 12:46:22;;;;;;;6.85;3.95;;;24.00;99.90;;;;;;5091767;28;20016;-69
2023/10/09 12:48:48;;;;;;;5.80;3.50;;;24.10;99.90;;;;;;5091548;28;20459;-68
2023/10/09 12:51:18;;;;;;;5.63;3.75;;;24.20;99.90;;;;;;5091445;28;20497;-69
2023/10/09 12:53:45;;;;;;;7.68;3.80;;;24.30;99.90;;;;;;5091567;28;20096;-69
2023/10/09 12:56:12;;;;;;;6.68;3.83;;;24.30;99.90;;;;;;5091102;28;20032;-69
2023/10/09 12:58:38;;;;;;;5.30;3.58;;;24.40;99.90;;;;;;5091517;28;20501;-69
2023/10/09 13:01:11;;;;;;;6.55;3.92;;;24.50;99.90;;;;;;5090865;28;20047;-69
2023/10/09 13:03:39;;;;;;;6.60;4.05;;;24.60;99.90;;;;;;5091052;28;20064;-70
2023/10/09 13:06:10;;;;;;;5.07;3.60;;;24.50;99.90;;;;;;5073072;28;20107;-71
2023/10/09 13:08:36;;;;;;;6.78;4.00;;;24.40;99.90;;;;;;5091505;28;20055;-70
2023/10/09 13:11:10;;;;;;;6.88;3.92;;;24.60;99.90;;;;;;5091096;28;20024;-70
2023/10/09 13:13:41;;;;;;;4.22;3.67;;;24.60;99.90;;;;;;5091187;28;20371;-70
2023/10/09 13:16:24;;;;;;;7.20;3.88;;;24.60;99.90;;;;;;5091104;28;20077;-71
2023/10/09 13:18:51;;;;;;;;;;;24.50;99.90;;;;;;5091499;28;20024;-72
2023/10/09 13:21:21;;;;;;;16.70;5.50;;;24.50;99.90;;;;;;5091400;28;19983;-73
2023/10/09 13:23:49;;;;;;;6.70;3.90;;;24.50;99.90;;;;;;5090941;28;20028;-72
2023/10/09 13:26:19;;;;;;;6.15;3.60;;;24.40;99.90;;;;;;5091261;28;20478;-72
2023/10/09 13:28:46;;;;;;;6.45;3.65;;;24.40;99.90;;;;;;5090700;28;20051;-72
2023/10/09 13:31:14;;;;;;;5.25;3.65;;;24.40;99.90;;;;;;5090811;28;20034;-71
2023/10/09 13:33:40;;;;;;;7.10;4.28;;;24.40;99.90;;;;;;5091059;28;20106;-72
2023/10/09 13:36:16;;;;;;;5.40;3.83;;;24.50;99.90;;;;;;5091057;28;20043;-71
2023/10/09 13:38:45;;;;;;;6.47;3.78;;;24.70;99.90;;;;;;5091463;28;20025;-71
2023/10/09 13:41:12;;;;;;;6.13;3.63;;;24.80;99.90;;;;;;5090980;28;20105;-71
2023/10/09 13:43:42;;;;;;;6.22;3.60;;;25.00;99.90;;;;;;5090794;28;20047;-70
2023/10/09 13:46:09;;;;;;;5.53;3.75;;;25.10;99.90;;;;;;5090469;28;20017;-71
2023/10/09 13:48:38;;;;;;;6.05;3.85;;;25.10;99.90;;;;;;5090958;28;20111;-68
2023/10/09 13:51:07;;;;;;;10.10;3.83;;;25.10;99.90;;;;;;5091214;28;20036;-69
2023/10/09 13:53:35;;;;;;;8.30;3.97;;;25.30;99.90;;;;;;5090908;28;20111;-70
2023/10/09 13:56:02;;;;;;;9.73;3.70;;;25.20;99.90;;;;;;5090913;28;20028;-70
2023/10/09 13:58:28;;;;;;;6.00;3.47;;;25.10;99.90;;;;;;5090761;28;20034;-70
2023/10/09 14:00:56;;;;;;;4.78;3.58;;;25.30;99.90;;;;;;5090745;28;20028;-70
2023/10/09 14:03:23;;;;;;;4.10;3.60;;;25.30;99.90;;;;;;5090709;28;20118;-69
2023/10/09 14:05:54;;;;;;;6.03;3.70;;;25.40;99.90;;;;;;5090740;28;20035;-70
2023/10/09 14:08:23;;;;;;;8.32;3.75;;;25.40;99.90;;;;;;5090817;28;20486;-70
2023/10/09 14:10:49;;;;;;;7.18;4.30;;;25.50;99.90;;;;;;5091141;28;20026;-69
2023/10/09 14:13:16;;;;;;;5.85;3.92;;;25.70;99.90;;;;;;5090759;28;20020;-68
2023/10/09 14:15:43;;;;;;;6.03;3.83;;;25.80;99.90;;;;;;5090565;28;20028;-69
2023/10/09 14:18:11;;;;;;;6.45;3.58;;;25.90;99.90;;;;;;5094451;28;20505;-70
2023/10/09 14:20:37;;;;;;;6.47;3.80;;;25.80;99.90;;;;;;5094910;28;20028;-69
2023/10/09 14:23:06;;;;;;;10.55;6.85;;;25.90;99.90;;;;;;5094345;28;20036;-69
2023/10/09 14:25:37;;;;;;;4.28;3.47;;;26.10;99.90;;;;;;5093915;28;20506;-70
2023/10/09 14:28:07;;;;;;;7.97;3.70;;;26.10;99.90;;;;;;5093753;28;20143;-69
2023/10/09 14:30:43;;;;;;;8.82;3.90;;;25.90;99.90;;;;;;5094217;28;20027;-69
2023/10/09 14:33:13;;;;;;;5.90;3.70;;;25.70;99.90;;;;;;5094155;28;20440;-69
2023/10/09 14:35:44;;;;;;;6.25;3.60;;;25.80;99.90;;;;;;5094091;28;20056;-69
2023/10/09 14:38:15;;;;;;;7.63;3.63;;;25.90;99.90;;;;;;5094422;28;20406;-70
2023/10/09 14:40:42;;;;;;;5.93;3.40;;;25.90;99.90;;;;;;5094020;28;20032;-69
2023/10/09 14:43:18;;;;;;;5.18;3.60;;;25.80;99.90;;;;;;5093715;28;20024;-68
2023/10/09 14:45:48;;;;;;;11.25;4.45;;;25.80;99.90;;;;;;5093887;28;20035;-69
2023/10/09 14:48:18;;;;;;;5.25;3.63;;;26.10;99.90;;;;;;5093815;28;20107;-68
2023/10/09 14:50:53;;;;;;;6.30;3.40;;;26.10;99.90;;;;;;5093750;28;20095;-69
2023/10/09 14:53:19;;;;;;;5.03;3.60;;;26.10;99.90;;;;;;5093661;28;20085;-68
2023/10/09 14:55:47;;;;;;;6.50;3.38;;;25.90;99.90;;;;;;5093658;28;20035;-69
2023/10/09 14:58:13;;;;;;;8.90;3.75;;;25.60;99.90;;;;;;5093255;28;20035;-68
2023/10/09 15:00:46;;;;;;;8.32;3.78;;;25.60;99.90;;;;;;5092752;28;20023;-68
2023/10/09 15:03:14;;;;;;;6.97;3.50;;;25.60;99.90;;;;;;5093273;28;20048;-68
2023/10/09 15:05:41;;;;;;;5.05;3.60;;;25.50;99.90;;;;;;5093842;28;20114;-68
2023/10/09 15:08:10;;;;;;;7.32;4.13;;;25.60;99.90;;;;;;5093450;28;20494;-69
2023/10/09 15:10:47;;;;;;;5.68;3.67;;;25.70;99.90;;;;;;5093285;28;20120;-69
2023/10/09 15:13:13;;;;;;;7.03;3.80;;;25.60;99.90;;;;;;5092963;28;20032;-68
2023/10/09 15:15:45;;;;;;;4.60;3.67;;;25.50;99.90;;;;;;5093690;28;20024;-68
2023/10/09 15:18:14;;;;;;;7.07;4.00;;;25.40;99.90;;;;;;5093235;28;20422;-69
2023/10/09 15:20:40;;;;;;;10.00;4.13;;;25.20;99.90;;;;;;5093168;28;20497;-67
2023/10/09 15:23:07;;;;;;;6.45;4.00;;;25.20;99.90;;;;;;5092993;28;20043;-69
2023/10/09 15:25:34;;;;;;;8.05;3.70;;;25.40;99.90;;;;;;5092958;28;20047;-69
2023/10/09 15:28:03;;;;;;;6.10;3.85;;;25.60;99.90;;;;;;5092781;28;20036;-69
2023/10/09 15:30:31;;;;;;;6.65;4.13;;;25.40;99.90;;;;;;5092943;28;20217;-68
2023/10/09 15:32:57;;;;;;;7.75;3.97;;;25.40;99.90;;;;;;5092957;28;20497;-68
2023/10/09 15:35:23;;;;;;;7.93;3.70;;;25.30;99.90;;;;;;5091969;28;20053;-69
2023/10/09 15:37:52;;;;;;;5.78;3.78;;;25.20;99.90;;;;;;5092878;28;20024;-68
2023/10/09 15:40:24;;;;;;;8.02;4.13;;;25.10;99.90;;;;;;5092640;28;20020;-68
2023/10/09 15:42:50;;;;;;;6.85;3.78;;;25.10;99.90;;;;;;5092444;28;20136;-69
2023/10/09 15:45:17;;;;;;;8.93;3.65;;;25.10;99.90;;;;;;5093072;28;20032;-68